Flight Track Log - Related Links

Times and Time Zones

All times are in EDT time to prevent confusion due to time zone crossing. See the RPA3228 flight status page for this flight to view local times or setup timezone preferences in your user account.

Time Position Orientation Groundspeed Altitude Reporting Facility
EDT Latitude Longitude Course Direction KTS MPH feet Rate Location/Type
Tue 07:15:21 AM 41.5283 -93.6697 86° East 159 183 1,400  Level Minneapolis Center
Tue 07:16:27 AM 41.4828 -93.7094 213° Southwest 222 255 3,400 2,000 Climbing Minneapolis Center
Tue 07:17:00 AM 41.4429 -93.3214 82° East  Level FlightAware Approximate
Tue 07:17:12 AM 41.4433 -93.6694 143° Southeast 261 300 5,100  Level Minneapolis Center
Tue 07:18:00 AM 41.4501 -93.1714 90° East  Level FlightAware Approximate
Tue 07:18:14 AM 41.4456 -93.5578 88° East 284 327 8,500  Level Minneapolis Center
Tue 07:19:00 AM 41.4500 -93.0208 90° East  Level FlightAware Approximate
Tue 07:19:15 AM 41.4486 -93.4653 87° East 293 337 10,700  Level Minneapolis Center
Tue 07:20:00 AM 41.4571 -92.8705 86° East  Level FlightAware Approximate
Tue 07:20:16 AM 41.4536 -93.3442 87° East 316 364 13,000  Level Minneapolis Center
Tue 07:21:16 AM 41.4606 -93.1903 87° East 339 390 15,600 2,380 Climbing Minneapolis Center
Tue 07:22:17 AM 41.4661 -93.0544 87° East 358 412 17,800 2,164 Climbing Minneapolis Center
Tue 07:23:18 AM 41.4725 -92.9178 86° East 367 422 20,000 2,016 Climbing Minneapolis Center
Tue 07:24:19 AM 41.4781 -92.7783 87° East 374 430 21,900 1,770 Climbing Minneapolis Center
Tue 07:25:20 AM 41.4836 -92.6344 87° East 382 440 23,600 1,574 Climbing Minneapolis Center
Tue 07:26:21 AM 41.4903 -92.4858 87° East 395 455 25,100 1,438 Climbing Minneapolis Center
Tue 07:27:21 AM 41.4950 -92.3331 88° East 406 467 26,500 1,339 Climbing Minneapolis Center
Tue 07:28:22 AM 41.5017 -92.1769 87° East 415 478 27,800 1,033 Climbing Minneapolis Center
Tue 07:29:23 AM 41.5061 -92.0489 87° East 424 488 28,600 1,180 Climbing Minneapolis Center
Tue 07:30:24 AM 41.5119 -91.8514 88° East 438 504 30,200 1,082 Climbing Minneapolis Center
Tue 07:31:25 AM 41.5175 -91.6653 88° East 441 507 30,800 1,250 Climbing Minneapolis Center
Tue 07:32:48 AM 41.5064 -91.4564 94° East 444 511 33,200 1,458 Climbing Chicago Center
Tue 07:33:49 AM 41.4819 -91.2775 100° East 454 522 34,300 885 Climbing Chicago Center
Tue 07:34:50 AM 41.4600 -91.1128 100° East 452 520 35,000 341 Climbing Chicago Center
Tue 07:35:52 AM 41.4378 -90.9472 100° East 453 521 35,000  Level Chicago Center
Tue 07:36:53 AM 41.4147 -90.7828 101° East 453 521 35,000  Level Chicago Center
Tue 07:37:54 AM 41.3911 -90.6219 101° East 446 513 35,000  Level Chicago Center
Tue 07:38:56 AM 41.3678 -90.4600 101° East 445 512 35,000  Level Chicago Center
Tue 07:39:57 AM 41.3397 -90.2639 101° East 447 514 35,000  Level Chicago Center
Tue 07:40:58 AM 41.3161 -90.1022 101° East 445 512 35,000  Level Chicago Center
Tue 07:42:00 AM 41.2922 -89.9392 101° East 446 513 35,000  Level Chicago Center
Tue 07:43:01 AM 41.2675 -89.7744 101° East 450 518 35,000  Level Chicago Center
Tue 07:44:02 AM 41.2431 -89.6111 101° East 450 518 35,000  Level Chicago Center
Tue 07:45:04 AM 41.2183 -89.4489 101° East 445 512 35,000  Level Chicago Center
Tue 07:46:05 AM 41.1928 -89.2847 102° East 450 518 35,000  Level Chicago Center
Tue 07:47:07 AM 41.1686 -89.1272 101° East 452 520 35,000  Level Chicago Center
Tue 07:48:08 AM 41.1419 -88.9642 102° East 454 522 35,000  Level Chicago Center
Tue 07:49:10 AM 41.1114 -88.7708 102° East 450 518 35,000  Level Chicago Center
Tue 07:50:11 AM 41.0847 -88.6086 102° East 452 520 35,000  Level Chicago Center
Tue 07:51:13 AM 41.0589 -88.4456 102° East 457 526 35,000  Level Chicago Center
Tue 07:52:14 AM 41.0319 -88.2839 102° East 458 527 35,000  Level Chicago Center
Tue 07:53:16 AM 41.0064 -88.1222 102° East 457 526 35,000  Level Chicago Center
Tue 07:54:17 AM 40.9747 -87.9281 102° East 455 524 35,000  Level Chicago Center
Tue 07:55:19 AM 40.9483 -87.7681 102° East 452 520 35,000  Level Chicago Center
Tue 07:56:20 AM 40.9203 -87.6075 103° East 452 520 35,000  Level Chicago Center
Tue 07:57:22 AM 40.8925 -87.4444 103° East 458 527 35,000  Level Chicago Center
Tue 07:58:23 AM 40.8631 -87.2856 104° East 452 520 35,000  Level Chicago Center
Tue 07:59:25 AM 40.8353 -87.1219 103° East 459 528 35,000  Level Chicago Center
Tue 08:00:27 AM 40.8011 -86.9278 103° East 457 526 35,000  Level Chicago Center
Tue 08:01:28 AM 40.7728 -86.7667 103° East 455 524 35,000  Level Chicago Center
Tue 08:02:30 AM 40.7428 -86.5997 103° East 458 527 35,000  Level Chicago Center
Tue 08:03:32 AM 40.7128 -86.4375 104° East 458 527 35,000  Level Chicago Center
Tue 08:04:33 AM 40.6867 -86.2919 103° East 461 531 35,000  Level Chicago Center
Tue 08:05:35 AM 40.6500 -86.0942 104° East 462 532 35,000  Level Chicago Center
Tue 08:06:37 AM 40.6194 -85.9289 104° East 465 535 35,000  Level Chicago Center
Tue 08:07:39 AM 40.5883 -85.7631 104° East 466 536 35,000  Level Chicago Center
Tue 08:08:41 AM 40.5564 -85.5956 104° East 469 540 35,000  Level Chicago Center
Tue 08:09:42 AM 40.5247 -85.4300 104° East 469 540 35,000  Level Chicago Center
Tue 08:10:44 AM 40.4931 -85.2642 104° East 469 540 35,000  Level Chicago Center
Tue 08:11:46 AM 40.4614 -85.0994 104° East 468 539 35,000  Level Chicago Center
Tue 08:12:48 AM 40.4211 -84.8994 105° East 472 543 35,000  Level Chicago Center
Tue 08:13:50 AM 40.3889 -84.7333 104° East 473 544 35,000  Level Chicago Center
Tue 08:14:51 AM 40.3542 -84.5664 105° East 478 550 35,000  Level Chicago Center
Tue 08:16:01 AM 40.3164 -84.3711 104° East 465 535 35,000  Level Indianapolis Center
Tue 08:17:02 AM 40.2822 -84.2061 105° East 468 539 35,000  Level Indianapolis Center
Tue 08:18:03 AM 40.2489 -84.0419 105° East 468 539 35,000  Level Indianapolis Center
Tue 08:19:05 AM 40.2164 -83.8783 105° East 467 537 35,000  Level Indianapolis Center
Tue 08:20:06 AM 40.1811 -83.7075 105° East 467 537 35,000  Level Indianapolis Center
Tue 08:21:08 AM 40.1458 -83.5425 106° East 467 537 35,000  Level Indianapolis Center
Tue 08:22:10 AM 40.1125 -83.3811 105° East 458 527 35,000  Level Indianapolis Center
Tue 08:23:11 AM 40.0767 -83.2192 106° East 461 531 35,000  Level Indianapolis Center
Tue 08:24:13 AM 40.0422 -83.0575 106° East 459 528 35,000  Level Indianapolis Center
Tue 08:25:14 AM 40.0022 -82.8706 106° East 458 527 35,000  Level Indianapolis Center
Tue 08:26:16 AM 39.9653 -82.7056 106° East 460 529 35,000  Level Indianapolis Center
Tue 08:27:18 AM 39.9308 -82.5444 106° East 461 531 35,000  Level Indianapolis Center
Tue 08:28:19 AM 39.8947 -82.3836 106° East 463 533 35,000  Level Indianapolis Center
Tue 08:29:21 AM 39.8597 -82.2244 106° East 458 527 35,000  Level Indianapolis Center
Tue 08:30:23 AM 39.8233 -82.0664 107° East 454 522 35,000  Level Indianapolis Center
Tue 08:31:24 AM 39.7872 -81.9064 106° East 459 528 35,000  Level Indianapolis Center
Tue 08:32:26 AM 39.7517 -81.7494 106° East 455 524 35,000  Level Indianapolis Center
Tue 08:33:28 AM 39.7150 -81.5908 107° East 455 524 35,000  Level Indianapolis Center
Tue 08:34:29 AM 39.6789 -81.4314 106° East 458 527 35,000  Level Indianapolis Center
Tue 08:35:31 AM 39.6339 -81.2406 107° East 459 528 35,000  Level Indianapolis Center
Tue 08:36:33 AM 39.5964 -81.0806 107° East 461 531 35,000  Level Indianapolis Center
Tue 08:37:34 AM 39.5594 -80.9211 107° East 461 531 35,000  Level Indianapolis Center
Tue 08:38:36 AM 39.5217 -80.7622 107° East 461 531 35,000  Level Indianapolis Center
Tue 08:39:38 AM 39.4836 -80.6011 107° East 464 534 35,000  Level Indianapolis Center
Tue 08:40:40 AM 39.4450 -80.4431 108° East 460 529 35,000  Level Indianapolis Center
Tue 08:41:41 AM 39.4061 -80.2833 107° East 463 533 35,000  Level Indianapolis Center
Tue 08:42:43 AM 39.3592 -80.0947 108° East 464 534 35,000 -710 Level Indianapolis Center
Tue 08:43:14 AM 39.3503 -80.0389 102° East 465 535 33,900 -2,333 Descending Washington Center
Tue 08:44:13 AM 39.3100 -79.8811 108° East 465 535 31,500 -1,450 Descending Washington Center
Tue 08:45:14 AM 39.2889 -79.7161 99° East 465 535 31,000 -248 Descending Washington Center
Tue 08:46:14 AM 39.2756 -79.5517 96° East 465 535 31,000 -347 Level Washington Center
Tue 08:47:15 AM 39.2603 -79.3767 96° East 476 548 30,300 -1,714 Descending Washington Center
Tue 08:48:13 AM 39.2411 -79.1933 98° East 476 548 27,600 -1,983 Descending Washington Center
Tue 08:49:13 AM 39.2269 -79.0292 96° East 469 540 26,400 -1,426 Descending Washington Center
Tue 08:50:15 AM 39.2128 -78.8706 97° East 458 527 24,700 -2,016 Descending Washington Center
Tue 08:51:15 AM 39.1981 -78.7172 97° East 445 512 22,300 -2,492 Descending Washington Center
Tue 08:52:13 AM 39.1831 -78.5692 97° East 431 496 19,800 -2,339 Descending Washington Center
Tue 08:53:13 AM 39.1697 -78.4294 97° East 411 473 17,700 -1,350 Descending Washington Center
Tue 08:54:13 AM 39.1436 -78.2894 103° East 398 458 17,100 -298 Descending Washington Center
Tue 08:55:14 AM 39.1111 -78.1622 108° East 388 447 17,100 -545 Level Washington Center
Tue 08:56:14 AM 39.0783 -78.0303 108° East 388 447 16,000 -1,537 Descending Washington Center
Tue 08:57:15 AM 39.0475 -77.9061 108° East 380 437 14,000 -1,765 Descending Washington Center
Tue 08:58:13 AM 39.0203 -77.8011 108° East 365 420 12,500 -1,664 Descending Washington Center
Tue 08:59:14 AM 38.9911 -77.6908 109° East 342 394 10,700 -1,632 Descending Washington Center
Tue 09:00:18 AM 38.9500 -77.5667 113° Southeast 301 346 9,100 -1,169 Descending Potomac TRACON
Tue 09:01:12 AM 38.9333 -77.4833 104° East 266 306 8,400 -947 Descending Potomac TRACON
Tue 09:02:12 AM 38.9000 -77.4000 117° Southeast 251 289 7,300 -1,050 Descending Potomac TRACON
Tue 09:03:12 AM 38.8667 -77.3333 123° Southeast 243 280 6,300 -678 Descending Potomac TRACON
Tue 09:04:07 AM 38.8333 -77.2667 123° Southeast 226 260 6,000 -157 Descending Potomac TRACON
Tue 09:05:07 AM 38.8000 -77.2000 123° Southeast 219 252 6,000  Level Potomac TRACON
Tue 09:06:06 AM 38.7667 -77.1333 123° Southeast 216 249 6,000  Level Potomac TRACON
Tue 09:07:01 AM 38.7333 -77.1167 159° South 210 242 6,000  Level Potomac TRACON
Tue 09:08:01 AM 38.6667 -77.1000 169° South 206 237 6,000 -150 Level Potomac TRACON
Tue 09:09:01 AM 38.6167 -77.1000 180° South 204 235 5,700 -947 Descending Potomac TRACON
Tue 09:09:55 AM 38.5667 -77.1000 180° South 211 243 4,200 -895 Descending Potomac TRACON
Tue 09:10:55 AM 38.5000 -77.0833 169° South 198 228 4,000 -100 Descending Potomac TRACON
Tue 09:11:55 AM 38.4500 -77.0667 165° South 202 232 4,000  Level Potomac TRACON
Tue 09:12:55 AM 38.4833 -77.0167 50° Northeast 182 209 4,000  Level Potomac TRACON
Tue 09:13:55 AM 38.5167 -77.0000 21° North 168 193 4,000  Level Potomac TRACON
Tue 09:14:55 AM 38.5667 -77.0167 345° North 167 192 4,000 -400 Level Potomac TRACON
Tue 09:15:55 AM 38.6167 -77.0167 360° North 163 188 3,200 -744 Descending Potomac TRACON
Tue 09:16:56 AM 38.6500 -77.0167 360° North 153 176 2,500 -347 Descending Potomac TRACON
Tue 09:17:56 AM 38.7000 -77.0167 360° North 157 181 2,500 -211 Level Potomac TRACON
Tue 09:18:50 AM 38.7333 -77.0333 339° North 159 183 2,100 -626 Descending Potomac TRACON
Tue 09:19:51 AM 38.7833 -77.0333 360° North 153 176 1,300 -694 Descending Potomac TRACON
Tue 09:20:51 AM 38.8167 -77.0167 21° North 129 148 700 -600 Descending Potomac TRACON

Login

Don't have an account? Register now (free) for customized features, flight alerts, and more!